Time;durP1;ratioP1;P1;durP2;ratioP2;P2;SDS_P1;SDS_P2;PMS_P1;PMS_P2;Temp;Humidity;BMP_temperature;BMP_pressure;BME280_temperature;BME280_humidity;BME280_pressure;Samples;Min_cycle;Max_cycle;Signal;HPM_P1;HPM_P2
2023/04/04 00:01:21;;;;;;;9.23;4.00;;;-0.10;99.90;;;;;;5063006;28;20024;-69
2023/04/04 00:03:50;;;;;;;9.77;3.70;;;-0.10;99.90;;;;;;5028557;28;20029;-65
2023/04/04 00:06:19;;;;;;;8.15;3.60;;;-0.20;99.90;;;;;;5060933;28;20028;-68
2023/04/04 00:08:46;;;;;;;8.52;3.75;;;-0.20;99.90;;;;;;5039380;28;20036;-63
2023/04/04 00:11:12;;;;;;;8.25;3.85;;;-0.20;99.90;;;;;;5056379;28;20032;-64
2023/04/04 00:13:38;;;;;;;10.00;3.35;;;-0.20;99.90;;;;;;5061720;28;20020;-64
2023/04/04 00:16:05;;;;;;;9.05;3.90;;;-0.30;99.90;;;;;;5047905;28;20492;-64
2023/04/04 00:18:33;;;;;;;11.45;4.13;;;-0.30;99.90;;;;;;5051481;28;20037;-65
2023/04/04 00:20:59;;;;;;;7.22;3.80;;;-0.30;99.90;;;;;;5058807;28;20044;-64
2023/04/04 00:23:24;;;;;;;11.65;3.63;;;-0.40;99.90;;;;;;5068897;28;20502;-67
2023/04/04 00:25:51;;;;;;;8.45;3.92;;;-0.40;99.90;;;;;;5055729;28;20044;-64
2023/04/04 00:28:18;;;;;;;11.38;3.63;;;-0.40;99.90;;;;;;5051547;28;20028;-64
2023/04/04 00:30:43;;;;;;;7.47;3.58;;;-0.40;99.90;;;;;;5070372;28;20033;-63
2023/04/04 00:33:09;;;;;;;9.45;3.78;;;-0.40;99.90;;;;;;5051042;28;20032;-64
2023/04/04 00:35:35;;;;;;;7.57;3.92;;;-0.40;99.90;;;;;;5069165;28;20031;-64
2023/04/04 00:38:01;;;;;;;13.55;4.05;;;-0.40;99.90;;;;;;5068088;28;20054;-65
2023/04/04 00:40:27;;;;;;;11.02;3.92;;;-0.40;99.90;;;;;;5066985;28;20032;-66
2023/04/04 00:42:53;;;;;;;8.60;3.58;;;-0.40;99.90;;;;;;5046756;28;20426;-65
2023/04/04 00:45:18;;;;;;;8.55;3.85;;;-0.40;99.90;;;;;;5065784;28;20024;-65
2023/04/04 00:47:45;;;;;;;8.70;4.05;;;-0.30;99.90;;;;;;5068610;28;20105;-64
2023/04/04 00:50:11;;;;;;;6.53;3.30;;;-0.30;99.90;;;;;;5051671;28;20051;-67
2023/04/04 00:52:36;;;;;;;6.35;3.05;;;-0.30;99.90;;;;;;5050417;28;20061;-66
2023/04/04 00:55:03;;;;;;;6.50;3.60;;;-0.30;99.90;;;;;;5064631;28;20036;-66
2023/04/04 00:57:29;;;;;;;12.02;4.15;;;-0.40;99.90;;;;;;5067308;28;20093;-67
2023/04/04 00:59:57;;;;;;;10.45;3.67;;;-0.50;99.90;;;;;;5056660;28;20116;-65
2023/04/04 01:02:24;;;;;;;8.55;3.90;;;-0.50;99.90;;;;;;5062600;28;20032;-70
2023/04/04 01:04:50;;;;;;;7.85;3.75;;;-0.50;99.90;;;;;;5070163;28;20136;-65
2023/04/04 01:07:17;;;;;;;7.80;3.40;;;-0.40;99.90;;;;;;5064269;28;20040;-66
2023/04/04 01:09:43;;;;;;;11.95;3.60;;;-0.40;99.90;;;;;;5058083;28;20047;-66
2023/04/04 01:12:09;;;;;;;10.18;4.10;;;-0.50;99.90;;;;;;5041267;28;20075;-67
2023/04/04 01:14:35;;;;;;;9.80;3.60;;;-0.50;99.90;;;;;;5065351;28;20090;-65
2023/04/04 01:17:02;;;;;;;8.82;4.00;;;-0.60;99.90;;;;;;5058110;28;20037;-66
2023/04/04 01:20:07;;;;;;;8.50;3.72;;;-0.60;99.90;;;;;;5062342;28;20063;-69
2023/04/04 01:22:34;;;;;;;7.90;3.40;;;-0.70;99.90;;;;;;5054709;28;20098;-65
2023/04/04 01:25:01;;;;;;;10.40;4.07;;;-0.70;99.90;;;;;;5070128;28;20039;-68
2023/04/04 01:27:26;;;;;;;13.05;4.38;;;-0.70;99.90;;;;;;5066123;28;20036;-72
2023/04/04 01:29:52;;;;;;;6.43;3.65;;;-0.80;99.90;;;;;;5055438;28;20040;-66
2023/04/04 01:32:20;;;;;;;10.80;3.90;;;-0.80;99.90;;;;;;5069132;28;20151;-65
2023/04/04 01:34:56;;;;;;;10.20;3.90;;;-0.90;99.90;;;;;;5069800;28;20028;-66
2023/04/04 01:38:02;;;;;;;9.82;4.10;;;-0.90;99.90;;;;;;5064454;28;20094;-67
2023/04/04 01:40:38;;;;;;;9.00;3.95;;;-0.90;99.90;;;;;;5039384;28;20043;-68
2023/04/04 01:43:03;;;;;;;8.25;3.70;;;-0.90;99.90;;;;;;5069074;28;20155;-66
2023/04/04 01:45:29;;;;;;;7.85;4.00;;;-0.90;99.90;;;;;;5040705;28;20459;-69
2023/04/04 01:47:58;;;;;;;11.10;4.20;;;-0.90;99.90;;;;;;5066678;28;20135;-66
2023/04/04 01:50:25;;;;;;;9.32;3.80;;;-0.90;99.90;;;;;;5055321;28;20048;-66
2023/04/04 01:52:50;;;;;;;9.15;3.95;;;-0.90;99.90;;;;;;5051573;28;20056;-66
2023/04/04 01:55:16;;;;;;;8.57;3.72;;;-0.90;99.90;;;;;;5064688;28;20769;-66
2023/04/04 01:57:42;;;;;;;10.90;4.28;;;-0.90;99.90;;;;;;5066870;28;20040;-67
2023/04/04 02:00:08;;;;;;;8.88;3.58;;;-0.90;99.90;;;;;;5062155;28;20028;-66
2023/04/04 02:02:33;;;;;;;9.98;4.18;;;-0.90;99.90;;;;;;5065144;28;20025;-66
2023/04/04 02:04:59;;;;;;;12.48;4.45;;;-0.90;99.90;;;;;;5066660;28;20522;-66
2023/04/04 02:07:25;;;;;;;9.32;3.83;;;-0.90;99.90;;;;;;5065242;28;20032;-66
2023/04/04 02:09:50;;;;;;;7.95;3.78;;;-0.90;99.90;;;;;;5054307;28;20414;-67
2023/04/04 02:12:16;;;;;;;9.68;4.22;;;-1.00;99.90;;;;;;5068176;28;20066;-69
2023/04/04 02:14:42;;;;;;;9.75;3.80;;;-1.00;99.90;;;;;;5063888;28;20032;-70
2023/04/04 02:17:07;;;;;;;10.55;4.50;;;-1.00;99.90;;;;;;5045817;28;20380;-69
2023/04/04 02:19:33;;;;;;;13.48;3.95;;;-1.00;99.90;;;;;;5065298;28;20032;-71
2023/04/04 02:21:59;;;;;;;10.70;4.25;;;-1.00;99.90;;;;;;5064512;28;20111;-67
2023/04/04 02:24:25;;;;;;;13.68;4.40;;;-1.00;99.90;;;;;;5065370;28;20040;-65
2023/04/04 02:26:50;;;;;;;9.60;3.97;;;-1.10;99.90;;;;;;5061203;28;20013;-66
2023/04/04 02:29:16;;;;;;;9.13;3.75;;;-1.10;99.90;;;;;;5067051;28;20037;-67
2023/04/04 02:31:42;;;;;;;11.32;4.53;;;-1.10;99.90;;;;;;5065801;28;20033;-67
2023/04/04 02:34:07;;;;;;;9.38;4.22;;;-1.10;99.90;;;;;;5052036;28;20083;-67
2023/04/04 02:36:33;;;;;;;8.18;3.88;;;-1.10;99.90;;;;;;5061974;28;20028;-66
2023/04/04 02:38:59;;;;;;;10.15;3.90;;;-1.10;99.90;;;;;;5066389;28;20125;-65
2023/04/04 02:41:25;;;;;;;9.30;4.10;;;-1.10;99.90;;;;;;5058373;28;20024;-64
2023/04/04 02:43:51;;;;;;;8.55;4.22;;;-1.10;99.90;;;;;;5061631;28;20024;-67
2023/04/04 02:46:16;;;;;;;10.40;4.30;;;-1.20;99.90;;;;;;5063995;28;20311;-66
2023/04/04 02:48:42;;;;;;;9.52;4.15;;;-1.20;99.90;;;;;;5064460;28;20040;-66
2023/04/04 02:51:08;;;;;;;8.70;4.30;;;-1.20;99.90;;;;;;5058561;28;20073;-67
2023/04/04 02:53:34;;;;;;;8.18;4.30;;;-1.20;99.90;;;;;;5052786;28;20072;-66
2023/04/04 02:56:02;;;;;;;11.35;4.50;;;-1.30;99.90;;;;;;5056456;28;20082;-65
2023/04/04 02:58:30;;;;;;;7.45;4.15;;;-1.30;99.90;;;;;;5067661;28;20120;-66
2023/04/04 03:00:56;;;;;;;9.93;4.10;;;-1.30;99.90;;;;;;5062789;28;20035;-66
2023/04/04 03:03:21;;;;;;;8.63;3.90;;;-1.30;99.90;;;;;;5057415;28;20025;-66
2023/04/04 03:05:48;;;;;;;8.80;3.90;;;-1.40;99.90;;;;;;5064993;28;20025;-66
2023/04/04 03:08:14;;;;;;;9.40;4.43;;;-1.40;99.90;;;;;;5069163;28;20032;-65
2023/04/04 03:10:40;;;;;;;9.82;4.25;;;-1.40;99.90;;;;;;5067923;28;20039;-65
2023/04/04 03:13:06;;;;;;;7.93;4.38;;;-1.50;99.90;;;;;;5067345;28;20068;-66
2023/04/04 03:15:33;;;;;;;11.52;4.25;;;-1.50;99.90;;;;;;5068391;28;20060;-68
2023/04/04 03:17:58;;;;;;;11.57;4.70;;;-1.50;99.90;;;;;;5068185;28;20032;-66
2023/04/04 03:20:25;;;;;;;9.52;4.05;;;-1.50;99.90;;;;;;5068636;28;20040;-66
2023/04/04 03:22:51;;;;;;;9.25;4.28;;;-1.60;99.90;;;;;;5066056;28;20056;-66
2023/04/04 03:25:17;;;;;;;7.85;4.30;;;-1.60;99.90;;;;;;5068598;28;20504;-66
2023/04/04 03:27:43;;;;;;;9.15;4.40;;;-1.60;99.90;;;;;;5067450;28;20037;-66
2023/04/04 03:30:09;;;;;;;9.70;4.72;;;-1.70;99.90;;;;;;5067779;28;20083;-67
2023/04/04 03:32:38;;;;;;;10.15;5.10;;;-1.70;99.90;;;;;;5066068;28;20488;-68
2023/04/04 03:35:04;;;;;;;14.30;4.72;;;-1.70;99.90;;;;;;5068821;28;20021;-65
2023/04/04 03:37:30;;;;;;;9.82;4.68;;;-1.70;99.90;;;;;;5062257;28;20033;-66
2023/04/04 03:39:56;;;;;;;13.40;5.38;;;-1.80;99.90;;;;;;5064566;28;20041;-66
2023/04/04 03:42:21;;;;;;;10.55;5.07;;;-1.80;99.90;;;;;;5032621;28;20025;-65
2023/04/04 03:44:47;;;;;;;11.77;4.43;;;-1.80;99.90;;;;;;5060997;28;20024;-67
2023/04/04 03:47:13;;;;;;;10.85;4.43;;;-1.90;99.90;;;;;;5067748;28;20108;-66
2023/04/04 03:49:39;;;;;;;10.90;4.53;;;-1.90;99.90;;;;;;5064291;28;20037;-66
2023/04/04 03:52:05;;;;;;;9.10;4.40;;;-1.90;99.90;;;;;;5064708;28;20029;-67
2023/04/04 03:54:31;;;;;;;16.35;5.93;;;-2.00;99.90;;;;;;5059493;28;20048;-67
2023/04/04 03:56:57;;;;;;;29.30;10.57;;;-2.10;99.90;;;;;;5065627;28;20070;-66
2023/04/04 03:59:23;;;;;;;20.55;6.90;;;-2.00;99.90;;;;;;5064870;28;20036;-66
2023/04/04 04:01:49;;;;;;;16.10;7.45;;;-2.00;99.90;;;;;;5053715;28;20037;-67
2023/04/04 04:04:14;;;;;;;20.95;7.43;;;-2.10;99.90;;;;;;5063656;28;20052;-66
2023/04/04 04:06:40;;;;;;;39.95;12.68;;;-2.10;99.90;;;;;;5066593;28;20034;-67
2023/04/04 04:09:06;;;;;;;30.95;10.02;;;-2.00;99.90;;;;;;5063572;28;20032;-67
2023/04/04 04:11:32;;;;;;;24.45;8.48;;;-2.00;99.90;;;;;;5054411;28;20036;-67
2023/04/04 04:13:59;;;;;;;23.77;8.38;;;-2.10;99.90;;;;;;5062045;28;20024;-67
2023/04/04 04:16:26;;;;;;;24.05;8.80;;;-2.10;99.90;;;;;;5059429;28;20052;-68
2023/04/04 04:18:52;;;;;;;23.73;7.90;;;-2.10;99.90;;;;;;5058269;28;20123;-66
2023/04/04 04:21:18;;;;;;;15.13;6.35;;;-2.10;99.90;;;;;;5061886;28;20464;-66
2023/04/04 04:23:43;;;;;;;15.75;5.25;;;-2.10;99.90;;;;;;5066182;28;20457;-67
2023/04/04 04:26:09;;;;;;;15.80;4.95;;;-2.10;99.90;;;;;;5052107;28;20438;-66
2023/04/04 04:28:35;;;;;;;13.73;5.07;;;-2.10;99.90;;;;;;5058485;28;20505;-69
2023/04/04 04:31:08;;;;;;;10.60;5.20;;;-2.10;99.90;;;;;;5053120;28;20092;-67
2023/04/04 04:33:34;;;;;;;12.52;4.78;;;-2.20;99.90;;;;;;5039205;28;20761;-64
2023/04/04 04:36:00;;;;;;;9.77;4.90;;;-2.30;99.90;;;;;;5054139;28;20033;-65
2023/04/04 04:38:27;;;;;;;12.73;5.43;;;-2.40;99.90;;;;;;5068128;28;20034;-67
2023/04/04 04:40:53;;;;;;;13.70;5.03;;;-2.30;99.90;;;;;;5064754;28;20533;-66
2023/04/04 04:43:19;;;;;;;12.40;5.93;;;-2.30;99.90;;;;;;5066417;28;20032;-67
2023/04/04 04:45:44;;;;;;;12.13;5.60;;;-2.30;99.90;;;;;;5055938;28;20389;-67
2023/04/04 04:48:10;;;;;;;15.77;5.90;;;-2.30;99.90;;;;;;5064529;28;20071;-66
2023/04/04 04:50:36;;;;;;;13.85;5.75;;;-2.30;99.90;;;;;;5054458;28;20159;-68
2023/04/04 04:53:01;;;;;;;18.88;8.40;;;-2.20;99.90;;;;;;5047843;28;20063;-67
2023/04/04 04:55:29;;;;;;;31.23;13.45;;;-2.20;99.90;;;;;;5063803;28;20043;-67
2023/04/04 04:57:54;;;;;;;18.42;7.55;;;-2.20;99.90;;;;;;5062871;28;20036;-66
2023/04/04 05:00:21;;;;;;;15.00;6.35;;;-2.10;99.90;;;;;;5065506;28;20111;-67
2023/04/04 05:02:46;;;;;;;13.05;6.18;;;-2.10;99.90;;;;;;5066115;28;20033;-67
2023/04/04 05:05:12;;;;;;;15.48;6.95;;;-2.00;99.90;;;;;;5052998;28;20025;-67
2023/04/04 05:07:37;;;;;;;13.98;6.88;;;-2.10;99.90;;;;;;5063951;28;20460;-69
2023/04/04 05:10:03;;;;;;;14.52;6.22;;;-2.00;99.90;;;;;;5035827;28;20469;-65
2023/04/04 05:12:29;;;;;;;12.82;5.80;;;-1.90;99.90;;;;;;5062040;28;20392;-67
2023/04/04 05:14:55;;;;;;;14.80;7.20;;;-1.90;99.90;;;;;;5056988;28;20045;-67
2023/04/04 05:17:22;;;;;;;14.18;6.45;;;-1.90;99.90;;;;;;5051006;28;20603;-67
2023/04/04 05:19:47;;;;;;;11.20;5.68;;;-1.80;99.90;;;;;;5055893;28;20053;-67
2023/04/04 05:22:13;;;;;;;11.02;5.53;;;-1.80;99.90;;;;;;5069906;28;20075;-66
2023/04/04 05:24:39;;;;;;;14.82;6.10;;;-1.70;99.90;;;;;;5040552;28;20443;-69
2023/04/04 05:27:05;;;;;;;17.75;6.45;;;-1.60;99.90;;;;;;5056800;28;20267;-67
2023/04/04 05:29:32;;;;;;;11.90;5.70;;;-1.50;99.90;;;;;;5050915;28;20400;-67
2023/04/04 05:31:57;;;;;;;12.68;5.35;;;-1.50;99.90;;;;;;5037997;28;20203;-67
2023/04/04 05:34:23;;;;;;;11.57;5.28;;;-1.40;99.90;;;;;;5064956;28;20516;-66
2023/04/04 05:36:49;;;;;;;11.18;4.78;;;-1.30;99.90;;;;;;5067936;28;20032;-67
2023/04/04 05:39:15;;;;;;;9.93;5.05;;;-1.30;99.90;;;;;;5052142;28;20028;-65
2023/04/04 05:41:41;;;;;;;10.15;5.00;;;-1.20;99.90;;;;;;5059935;28;20710;-67
2023/04/04 05:44:07;;;;;;;11.43;5.40;;;-1.10;99.90;;;;;;5055611;28;20040;-67
2023/04/04 05:46:33;;;;;;;11.18;5.20;;;-1.10;99.90;;;;;;5061932;28;20020;-65
2023/04/04 05:48:58;;;;;;;15.55;4.78;;;-1.00;99.90;;;;;;5063475;28;20051;-66
2023/04/04 05:51:24;;;;;;;15.23;5.40;;;-1.00;99.90;;;;;;5053614;28;20540;-65
2023/04/04 05:53:49;;;;;;;11.75;5.20;;;-1.00;99.90;;;;;;5054423;28;20141;-70
2023/04/04 05:56:15;;;;;;;12.10;5.47;;;-0.90;99.90;;;;;;5058729;28;20252;-64
2023/04/04 05:58:41;;;;;;;12.20;5.28;;;-0.80;99.90;;;;;;5040431;28;20115;-68
2023/04/04 06:01:07;;;;;;;10.68;5.45;;;-0.80;99.90;;;;;;5051863;28;20029;-65
2023/04/04 06:03:33;;;;;;;11.32;5.45;;;-0.60;99.90;;;;;;5054683;28;20033;-64
2023/04/04 06:06:01;;;;;;;15.55;5.72;;;-0.60;99.90;;;;;;5057125;28;20426;-65
2023/04/04 06:08:27;;;;;;;11.45;5.07;;;-0.60;99.90;;;;;;5058371;28;20044;-65
2023/04/04 06:10:54;;;;;;;12.43;5.50;;;-0.40;99.90;;;;;;5061303;28;20503;-66
2023/04/04 06:13:20;;;;;;;12.10;4.80;;;-0.40;99.90;;;;;;5056650;28;20043;-65
2023/04/04 06:15:46;;;;;;;10.10;4.65;;;-0.30;99.90;;;;;;5057718;28;20033;-66
2023/04/04 06:18:11;;;;;;;13.27;5.15;;;-0.20;99.90;;;;;;5058559;28;20040;-67
2023/04/04 06:20:37;;;;;;;14.73;4.95;;;-0.10;99.90;;;;;;5059960;28;20125;-67
2023/04/04 06:23:03;;;;;;;10.77;4.70;;;0.00;99.90;;;;;;5038880;28;20036;-65
2023/04/04 06:25:30;;;;;;;9.60;4.57;;;0.10;99.90;;;;;;5056642;28;20055;-66
2023/04/04 06:27:56;;;;;;;16.98;4.95;;;0.10;99.90;;;;;;5036963;28;20728;-64
2023/04/04 06:30:22;;;;;;;9.18;5.05;;;0.20;99.90;;;;;;5059372;28;20040;-66
2023/04/04 06:32:48;;;;;;;12.23;4.90;;;0.20;99.90;;;;;;5056923;28;20020;-66
2023/04/04 06:35:14;;;;;;;13.15;4.30;;;0.00;99.90;;;;;;5058681;28;20032;-69
2023/04/04 06:37:39;;;;;;;10.15;4.88;;;0.10;99.90;;;;;;5060069;28;20714;-64
2023/04/04 06:40:06;;;;;;;11.05;4.55;;;0.10;99.90;;;;;;5073564;28;20024;-66
2023/04/04 06:42:32;;;;;;;10.40;4.38;;;0.20;99.90;;;;;;5064824;28;20284;-66
2023/04/04 06:44:57;;;;;;;10.25;4.63;;;0.30;99.90;;;;;;5058144;28;20032;-65
2023/04/04 06:47:23;;;;;;;12.70;4.65;;;0.40;99.90;;;;;;5061161;28;20761;-64
2023/04/04 06:49:48;;;;;;;14.25;5.03;;;0.40;99.90;;;;;;5045478;28;20110;-67
2023/04/04 06:52:14;;;;;;;9.02;4.28;;;0.40;99.90;;;;;;5063645;28;20427;-64
2023/04/04 06:54:40;;;;;;;10.15;4.78;;;0.40;99.90;;;;;;5066904;28;20456;-64
2023/04/04 06:57:06;;;;;;;9.80;4.53;;;0.60;99.90;;;;;;5064585;28;20025;-64
2023/04/04 06:59:31;;;;;;;10.88;4.07;;;0.70;99.90;;;;;;5060569;28;20444;-67
2023/04/04 07:01:57;;;;;;;9.13;4.53;;;0.80;99.90;;;;;;5058134;28;20113;-64
2023/04/04 07:04:23;;;;;;;8.40;4.15;;;1.00;99.90;;;;;;5058097;28;20503;-63
2023/04/04 07:06:48;;;;;;;10.43;4.43;;;1.00;99.90;;;;;;5067111;28;20525;-63
2023/04/04 07:09:14;;;;;;;10.00;4.53;;;1.00;99.90;;;;;;5046439;28;20056;-64
2023/04/04 07:11:40;;;;;;;13.50;4.50;;;1.10;99.90;;;;;;5052699;28;20024;-64
2023/04/04 07:14:05;;;;;;;17.85;4.40;;;1.00;99.90;;;;;;5046845;28;20550;-64
2023/04/04 07:16:31;;;;;;;8.70;4.47;;;1.10;99.90;;;;;;5068432;28;20093;-65
2023/04/04 07:18:56;;;;;;;11.85;4.57;;;1.10;99.90;;;;;;5056391;28;20039;-65
2023/04/04 07:21:23;;;;;;;8.43;4.28;;;1.10;99.90;;;;;;5068754;28;20107;-66
2023/04/04 07:23:49;;;;;;;9.35;4.28;;;1.20;99.90;;;;;;5065251;28;20039;-65
2023/04/04 07:26:15;;;;;;;9.63;4.10;;;1.30;99.90;;;;;;5062215;28;20028;-66
2023/04/04 07:28:41;;;;;;;9.13;3.88;;;1.50;99.90;;;;;;5060615;28;20035;-68
2023/04/04 07:31:07;;;;;;;9.88;4.13;;;1.60;99.90;;;;;;5058808;28;20563;-68
2023/04/04 07:33:32;;;;;;;10.38;4.20;;;1.60;99.90;;;;;;5065708;28;20032;-67
2023/04/04 07:36:00;;;;;;;10.63;3.58;;;1.60;99.90;;;;;;5065056;28;20028;-70
2023/04/04 07:38:26;;;;;;;9.73;4.43;;;1.70;99.90;;;;;;5060394;28;20070;-66
2023/04/04 07:40:52;;;;;;;7.97;3.83;;;1.70;99.90;;;;;;5055149;28;20029;-67
2023/04/04 07:43:17;;;;;;;9.60;4.13;;;1.80;99.90;;;;;;5064395;28;20025;-67
2023/04/04 07:45:46;;;;;;;8.45;3.88;;;2.10;99.90;;;;;;5052715;28;20450;-66
2023/04/04 07:48:12;;;;;;;10.10;3.97;;;2.20;99.90;;;;;;5058836;28;20029;-69
2023/04/04 07:50:37;;;;;;;10.93;3.47;;;2.30;99.90;;;;;;5059948;28;20363;-68
2023/04/04 07:53:03;;;;;;;8.35;4.30;;;2.30;99.90;;;;;;5057551;28;20048;-67
2023/04/04 07:55:29;;;;;;;12.65;3.72;;;2.40;99.90;;;;;;5067630;28;20095;-70
2023/04/04 07:57:55;;;;;;;10.65;3.90;;;2.50;99.90;;;;;;5066152;28;20029;-65
2023/04/04 08:00:21;;;;;;;7.43;3.25;;;2.50;99.90;;;;;;5068264;28;20115;-66
2023/04/04 08:02:54;;;;;;;6.45;3.50;;;2.60;99.90;;;;;;5053147;28;20082;-73
2023/04/04 08:05:20;;;;;;;8.07;3.53;;;2.60;99.90;;;;;;5062727;28;20377;-66
2023/04/04 08:07:46;;;;;;;8.85;3.85;;;2.60;99.90;;;;;;5063856;28;20025;-72
2023/04/04 08:10:11;;;;;;;8.40;3.60;;;2.60;99.90;;;;;;5060306;28;20068;-67
2023/04/04 08:12:38;;;;;;;8.68;3.83;;;2.70;99.90;;;;;;5063417;28;20079;-67
2023/04/04 08:15:04;;;;;;;10.15;3.85;;;2.90;99.90;;;;;;5047450;28;20033;-66
2023/04/04 08:17:30;;;;;;;7.55;3.45;;;3.20;99.90;;;;;;5054525;28;20105;-65
2023/04/04 08:19:55;;;;;;;11.93;3.75;;;3.30;99.90;;;;;;5050304;28;20067;-66
2023/04/04 08:22:21;;;;;;;7.95;3.65;;;3.30;99.90;;;;;;5062036;28;20028;-67
2023/04/04 08:24:47;;;;;;;13.65;5.47;;;3.40;99.90;;;;;;5059591;28;20037;-73
2023/04/04 08:27:14;;;;;;;11.25;4.40;;;3.40;99.90;;;;;;5061215;28;20024;-67
2023/04/04 08:29:40;;;;;;;10.32;4.35;;;3.60;99.90;;;;;;5055287;28;20044;-66
2023/04/04 08:32:06;;;;;;;11.65;4.50;;;3.60;99.90;;;;;;5058864;28;20033;-67
2023/04/04 08:34:32;;;;;;;10.13;4.10;;;3.80;99.90;;;;;;5067918;28;20028;-69
2023/04/04 08:36:58;;;;;;;10.25;4.32;;;4.00;99.70;;;;;;5067075;28;20052;-68
2023/04/04 08:39:24;;;;;;;9.13;4.30;;;4.00;99.90;;;;;;5069651;28;20495;-67
2023/04/04 08:42:00;;;;;;;7.85;4.20;;;4.20;99.90;;;;;;5069691;28;20032;-73
2023/04/04 08:44:27;;;;;;;10.23;3.97;;;4.40;99.90;;;;;;5071811;28;20020;-66
2023/04/04 08:46:54;;;;;;;8.05;3.88;;;4.40;98.40;;;;;;5070785;28;20028;-66
2023/04/04 08:49:21;;;;;;;10.52;4.32;;;4.30;98.60;;;;;;5071550;28;20048;-67
2023/04/04 08:51:48;;;;;;;10.20;3.83;;;4.20;97.40;;;;;;5070211;28;20041;-71
2023/04/04 08:54:15;;;;;;;8.65;3.47;;;4.00;98.20;;;;;;5070492;28;20053;-67
2023/04/04 08:56:42;;;;;;;7.13;3.47;;;4.20;97.50;;;;;;5071529;28;20074;-68
2023/04/04 08:59:10;;;;;;;8.80;4.00;;;4.50;97.10;;;;;;5070595;28;20136;-68
2023/04/04 09:01:36;;;;;;;10.23;3.92;;;4.30;94.90;;;;;;5070059;28;20451;-66
2023/04/04 09:04:03;;;;;;;9.73;3.95;;;4.00;95.20;;;;;;5070395;28;20033;-68
2023/04/04 09:06:29;;;;;;;9.50;3.70;;;4.00;97.00;;;;;;5071191;28;20728;-67
2023/04/04 09:08:59;;;;;;;8.98;3.90;;;4.20;96.20;;;;;;5070200;28;20032;-67
2023/04/04 09:11:26;;;;;;;7.28;3.50;;;4.60;96.30;;;;;;5069637;28;20033;-67
2023/04/04 09:13:55;;;;;;;9.38;3.75;;;4.50;96.00;;;;;;5052434;28;20146;-73
2023/04/04 09:16:20;;;;;;;10.95;4.38;;;4.30;96.30;;;;;;5071088;28;20025;-65
2023/04/04 09:18:46;;;;;;;8.38;4.00;;;4.00;96.50;;;;;;5070713;28;20035;-67
2023/04/04 09:21:12;;;;;;;8.68;4.20;;;3.90;96.20;;;;;;5051168;28;20029;-68
2023/04/04 09:23:39;;;;;;;11.25;4.18;;;3.80;96.20;;;;;;5052584;28;20067;-67
2023/04/04 09:26:05;;;;;;;7.88;3.85;;;3.80;96.50;;;;;;5070081;28;20126;-66
2023/04/04 09:28:32;;;;;;;15.43;4.60;;;3.80;96.70;;;;;;5069927;28;20083;-67
2023/04/04 09:31:04;;;;;;;9.65;4.13;;;3.60;95.70;;;;;;5070048;28;20607;-67
2023/04/04 09:33:34;;;;;;;10.00;3.83;;;3.60;97.10;;;;;;5070804;28;20032;-66
2023/04/04 09:36:11;;;;;;;11.75;4.03;;;4.10;95.00;;;;;;5067678;28;20029;-66
2023/04/04 09:38:44;;;;;;;8.98;3.75;;;4.40;96.20;;;;;;5067848;28;20056;-69
2023/04/04 09:41:12;;;;;;;9.45;4.10;;;4.60;96.20;;;;;;5051437;28;20028;-67
2023/04/04 09:43:39;;;;;;;6.75;3.60;;;5.10;95.90;;;;;;5043587;28;20025;-70
2023/04/04 09:46:05;;;;;;;8.57;4.05;;;5.30;92.70;;;;;;5058456;28;20078;-67
2023/04/04 09:48:33;;;;;;;8.65;3.60;;;5.20;93.20;;;;;;5043058;28;20091;-69
2023/04/04 09:50:59;;;;;;;8.35;3.70;;;5.10;92.30;;;;;;5059811;28;20087;-69
2023/04/04 09:53:26;;;;;;;9.73;4.32;;;5.40;92.10;;;;;;5051144;28;20044;-70
2023/04/04 09:55:53;;;;;;;10.98;4.43;;;5.30;91.10;;;;;;5069736;28;20024;-74
2023/04/04 09:58:34;;;;;;;7.18;3.80;;;5.50;92.30;;;;;;5061430;28;20531;-69
2023/04/04 10:01:02;;;;;;;7.47;3.60;;;5.50;91.30;;;;;;5059718;28;20036;-67
2023/04/04 10:03:29;;;;;;;13.85;4.53;;;5.30;90.00;;;;;;5057746;28;20562;-69
2023/04/04 10:06:09;;;;;;;7.57;4.00;;;5.50;90.40;;;;;;5060705;28;20087;-73
2023/04/04 10:08:40;;;;;;;11.10;3.85;;;5.30;89.80;;;;;;5050742;28;20029;-67
2023/04/04 10:11:06;;;;;;;9.68;4.60;;;5.50;92.20;;;;;;5057318;28;20488;-67
2023/04/04 10:13:35;;;;;;;7.72;3.40;;;5.60;90.70;;;;;;5031366;28;20124;-68
2023/04/04 10:16:03;;;;;;;8.63;3.53;;;5.40;87.10;;;;;;5062530;28;20033;-67
2023/04/04 10:18:31;;;;;;;7.65;3.85;;;5.70;90.00;;;;;;5060473;28;20051;-68
2023/04/04 10:20:59;;;;;;;6.90;3.75;;;5.90;88.70;;;;;;5063393;28;20028;-73
2023/04/04 10:23:26;;;;;;;8.45;3.78;;;6.10;91.90;;;;;;5051460;28;20036;-67
2023/04/04 10:25:57;;;;;;;7.75;3.88;;;6.20;87.30;;;;;;5068599;28;20078;-69
2023/04/04 10:28:23;;;;;;;9.02;3.28;;;5.70;85.70;;;;;;5068529;28;20028;-69
2023/04/04 10:31:21;;;;;;;6.65;3.63;;;5.90;91.20;;;;;;5055928;28;20068;-67
2023/04/04 10:34:18;;;;;;;8.23;3.72;;;5.90;85.80;;;;;;5049558;28;20020;-68
2023/04/04 10:36:47;;;;;;;5.43;3.42;;;6.00;90.70;;;;;;5049540;28;20032;-69
2023/04/04 10:39:17;;;;;;;5.95;3.35;;;6.50;87.20;;;;;;5059755;28;20516;-68
2023/04/04 10:41:45;;;;;;;7.68;3.50;;;6.50;83.70;;;;;;5053351;28;20516;-67
2023/04/04 10:44:19;;;;;;;7.82;3.70;;;6.30;83.60;;;;;;5050487;28;20032;-69
2023/04/04 10:46:48;;;;;;;9.30;3.92;;;5.80;84.00;;;;;;5060232;28;20035;-74
2023/04/04 10:49:14;;;;;;;6.25;3.58;;;6.00;84.80;;;;;;5054348;28;20372;-71
2023/04/04 10:51:41;;;;;;;9.20;3.92;;;6.30;86.90;;;;;;5059620;28;20113;-68
2023/04/04 10:54:07;;;;;;;7.28;3.78;;;6.60;84.30;;;;;;5056210;28;20048;-68
2023/04/04 10:56:34;;;;;;;7.38;3.80;;;6.50;82.10;;;;;;5059305;28;20035;-68
2023/04/04 10:59:15;;;;;;;9.45;3.85;;;6.50;85.00;;;;;;5056769;28;20036;-68
2023/04/04 11:01:48;;;;;;;7.25;3.80;;;7.00;86.50;;;;;;5039485;28;20043;-69
2023/04/04 11:04:27;;;;;;;5.93;3.20;;;7.40;86.90;;;;;;5055856;28;20206;-67
2023/04/04 11:07:17;;;;;;;7.25;3.70;;;7.10;85.20;;;;;;5061658;28;21062;-67
2023/04/04 11:10:00;;;;;;;9.50;3.90;;;7.30;86.10;;;;;;5039196;28;20055;-67
2023/04/04 11:12:28;;;;;;;11.25;4.13;;;7.50;83.10;;;;;;5058956;28;20040;-72
2023/04/04 11:15:15;;;;;;;7.63;3.67;;;7.60;80.30;;;;;;5060357;28;20114;-67
2023/04/04 11:17:54;;;;;;;6.75;3.80;;;7.20;82.40;;;;;;5067362;28;20477;-66
2023/04/04 11:20:24;;;;;;;8.55;3.78;;;7.50;85.30;;;;;;5058067;28;20109;-67
2023/04/04 11:23:02;;;;;;;7.40;4.03;;;7.80;84.80;;;;;;5062221;28;20480;-69
2023/04/04 11:25:36;;;;;;;10.20;4.00;;;7.90;82.00;;;;;;5063476;28;20021;-68
2023/04/04 11:28:07;;;;;;;8.40;4.10;;;7.60;78.40;;;;;;5067705;28;20032;-67
2023/04/04 11:30:43;;;;;;;8.02;3.90;;;7.60;79.10;;;;;;5066843;28;20068;-67
2023/04/04 11:33:11;;;;;;;10.20;3.95;;;7.40;84.30;;;;;;5062644;28;21488;-67
2023/04/04 11:35:38;;;;;;;11.93;4.13;;;7.60;80.80;;;;;;5060483;28;20024;-64
2023/04/04 11:38:12;;;;;;;8.20;4.22;;;7.20;80.40;;;;;;5044273;28;20424;-64
2023/04/04 11:40:40;;;;;;;9.38;4.15;;;7.10;79.60;;;;;;5065197;28;20472;-64
2023/04/04 11:43:14;;;;;;;8.77;4.07;;;7.30;81.90;;;;;;5052109;28;20553;-64
2023/04/04 11:45:44;;;;;;;10.98;4.50;;;8.20;89.60;;;;;;5059394;28;20035;-64
2023/04/04 11:48:11;;;;;;;9.70;4.33;;;8.40;78.40;;;;;;5037977;28;20431;-64
2023/04/04 11:50:38;;;;;;;8.88;4.07;;;7.80;77.90;;;;;;5050208;28;20282;-64
2023/04/04 11:53:07;;;;;;;8.32;4.20;;;7.70;78.80;;;;;;5063402;28;20048;-64
2023/04/04 11:55:32;;;;;;;8.30;3.80;;;8.00;82.20;;;;;;5051495;28;20045;-64
2023/04/04 11:58:08;;;;;;;10.07;4.05;;;8.20;81.30;;;;;;5047841;28;20056;-71
2023/04/04 12:00:35;;;;;;;8.57;4.10;;;7.70;78.00;;;;;;5048620;28;20480;-63
2023/04/04 12:03:04;;;;;;;7.82;3.80;;;7.50;79.00;;;;;;5050400;28;20036;-71
2023/04/04 12:05:30;;;;;;;11.18;3.88;;;8.00;81.20;;;;;;5068158;28;20021;-63
2023/04/04 12:07:57;;;;;;;8.63;4.22;;;7.80;80.10;;;;;;5056055;28;20648;-63
2023/04/04 12:10:23;;;;;;;9.18;4.50;;;7.60;82.40;;;;;;5066959;28;20329;-63
2023/04/04 12:12:49;;;;;;;6.38;3.97;;;7.40;77.30;;;;;;5059290;28;20075;-66
2023/04/04 12:15:15;;;;;;;6.80;4.50;;;7.20;77.30;;;;;;5065536;28;20476;-63
2023/04/04 12:17:43;;;;;;;6.95;4.35;;;7.50;82.20;;;;;;5056020;28;20032;-64
2023/04/04 12:20:10;;;;;;;7.07;4.40;;;7.90;81.10;;;;;;5052302;28;20025;-65
2023/04/04 12:22:36;;;;;;;8.88;4.03;;;8.10;84.90;;;;;;5067205;28;20078;-64
2023/04/04 12:25:04;;;;;;;8.13;4.45;;;8.50;75.60;;;;;;5068617;28;20028;-71
2023/04/04 12:27:30;;;;;;;10.57;4.28;;;8.20;73.60;;;;;;5063306;28;20400;-63
2023/04/04 12:30:00;;;;;;;6.18;3.80;;;8.00;77.60;;;;;;5054031;28;20045;-64
2023/04/04 12:32:26;;;;;;;7.90;3.88;;;8.10;75.50;;;;;;5061302;28;20032;-63
2023/04/04 12:34:52;;;;;;;8.07;3.72;;;8.00;75.80;;;;;;5058139;28;20735;-65
2023/04/04 12:37:20;;;;;;;9.45;3.80;;;8.10;78.60;;;;;;5063837;28;20079;-63
2023/04/04 12:39:51;;;;;;;7.15;4.18;;;8.20;73.00;;;;;;5062933;28;20522;-65
2023/04/04 12:42:21;;;;;;;10.50;5.60;;;8.60;78.40;;;;;;5070241;28;20110;-66
2023/04/04 12:44:48;;;;;;;;;;;8.90;76.00;;;;;;5062486;28;20058;-63
2023/04/04 12:47:19;;;;;;;7.75;3.80;;;8.50;75.50;;;;;;5060605;28;19951;-63
2023/04/04 12:49:50;;;;;;;7.88;4.00;;;8.40;75.10;;;;;;5053879;28;20191;-63